Flight Track Log - Related Links

Times and Time Zones

All times are in EDT time to prevent confusion due to time zone crossing. See the DAL1331 flight status page for this flight to view local times or setup timezone preferences in your user account.

Time Position Orientation Groundspeed Altitude Reporting Facility
EDT Latitude Longitude Course Direction KTS MPH feet Rate Location/Type
Wed 04:47:39 PM 44.8833 -93.3000 137° Southeast 211 243 2,600  Level Minneapolis TRACON
Wed 04:48:05 PM 44.8875 -93.3228 284° West 232 267 3,000 2,318 Climbing Minneapolis Center
Wed 04:49:07 PM 44.8553 -93.4175 244° Southwest 280 322 6,000 2,177 Climbing Minneapolis Center
Wed 04:50:00 PM 44.7074 -92.5236 115° Southeast  Level Estimated
Wed 04:50:09 PM 44.7700 -93.4686 203° Southwest 293 337 7,500  Level Minneapolis Center
Wed 04:51:00 PM 44.6631 -92.3497 117° Southeast  Level Estimated
Wed 04:51:11 PM 44.7078 -93.4139 148° Southeast 304 350 10,500  Level Minneapolis Center
Wed 04:52:00 PM 44.5675 -92.2231 137° Southeast  Level FlightAware
Wed 04:52:13 PM 44.6975 -93.2872 96° East 343 395 11,600  Level Minneapolis Center
Wed 04:53:16 PM 44.6736 -93.1108 101° East 406 467 13,400 2,208 Climbing Minneapolis Center
Wed 04:54:18 PM 44.6314 -92.9647 112° Southeast 405 466 16,200 1,887 Climbing Minneapolis Center
Wed 04:55:20 PM 44.5858 -92.8147 113° Southeast 424 488 17,300 1,258 Climbing Minneapolis Center
Wed 04:56:22 PM 44.5367 -92.6581 114° Southeast 438 504 18,800 1,452 Climbing Minneapolis Center
Wed 04:57:24 PM 44.4831 -92.4953 115° Southeast 458 527 20,300 1,403 Climbing Minneapolis Center
Wed 04:58:26 PM 44.4122 -92.3400 123° Southeast 472 543 21,700 1,403 Climbing Minneapolis Center
Wed 04:59:28 PM 44.3128 -92.1683 129° Southeast 476 548 23,200 1,359 Climbing Minneapolis Center
Wed 05:00:34 PM 44.2281 -92.0200 129° Southeast 486 559 24,600 1,266 Climbing Minneapolis Center
Wed 05:01:36 PM 44.1428 -91.8714 129° Southeast 491 565 25,900 2,081 Climbing Minneapolis Center
Wed 05:02:38 PM 44.0619 -91.7325 129° Southeast 474 545 28,900 1,790 Climbing Minneapolis Center
Wed 05:03:40 PM 43.9742 -91.5811 129° Southeast 456 525 29,600 871 Climbing Minneapolis Center
Wed 05:04:42 PM 43.9294 -91.4169 111° Southeast 468 539 30,700 677 Climbing Minneapolis Center
Wed 05:05:44 PM 43.9322 -91.2367 89° East 470 541 31,000 145 Climbing Minneapolis Center
Wed 05:06:46 PM 43.9589 -91.0256 80° East 470 541 31,000  Level Minneapolis Center
Wed 05:07:49 PM 43.9814 -90.8450 80° East 475 547 31,000  Level Minneapolis Center
Wed 05:08:51 PM 44.0056 -90.6647 79° East 477 549 31,000  Level Minneapolis Center
Wed 05:09:32 PM 44.0269 -90.5594 74° East 479 551 31,000  Level Chicago Center
Wed 05:10:34 PM 44.0753 -90.3511 72° East 475 547 31,000  Level Chicago Center
Wed 05:10:55 PM 44.0886 -90.2844 74° East 475 547 31,000  Level Minneapolis Center
Wed 05:11:57 PM 44.1297 -90.1092 72° East 477 549 31,000  Level Minneapolis Center
Wed 05:12:59 PM 44.1697 -89.9322 72° East 478 550 31,000  Level Minneapolis Center
Wed 05:14:01 PM 44.2106 -89.7547 72° East 483 556 31,000  Level Minneapolis Center
Wed 05:15:03 PM 44.2606 -89.5806 68° East 487 560 31,000  Level Minneapolis Center
Wed 05:16:05 PM 44.3364 -89.3892 61° Northeast 486 559 31,000  Level Minneapolis Center
Wed 05:17:07 PM 44.4039 -89.2281 60° Northeast 484 557 31,000  Level Minneapolis Center
Wed 05:18:09 PM 44.4622 -89.0594 64° Northeast 481 554 31,000  Level Minneapolis Center
Wed 05:19:12 PM 44.4892 -88.8686 79° East 496 571 31,000  Level Minneapolis Center
Wed 05:20:14 PM 44.5072 -88.6817 82° East 491 565 31,000  Level Minneapolis Center
Wed 05:21:16 PM 44.5272 -88.4672 82° East 484 557 31,000  Level Minneapolis Center
Wed 05:22:18 PM 44.5444 -88.2778 83° East 489 563 31,000  Level Minneapolis Center
Wed 05:23:20 PM 44.5028 -88.1089 109° East 472 543 31,000  Level Minneapolis Center
Wed 05:24:22 PM 44.4158 -87.9703 131° Southeast 474 545 31,000  Level Minneapolis Center
Wed 05:25:24 PM 44.3286 -87.8342 132° Southeast 472 543 31,000  Level Minneapolis Center
Wed 05:26:26 PM 44.2269 -87.6736 131° Southeast 472 543 31,000  Level Minneapolis Center
Wed 05:27:28 PM 44.1381 -87.5342 132° Southeast 477 549 31,000  Level Minneapolis Center
Wed 05:28:30 PM 44.0481 -87.3961 132° Southeast 480 552 31,000  Level Minneapolis Center
Wed 05:29:32 PM 43.9589 -87.2578 132° Southeast 481 554 31,000  Level Minneapolis Center
Wed 05:30:34 PM 43.8719 -87.1094 129° Southeast 481 554 31,000  Level Minneapolis Center
Wed 05:31:15 PM 43.8247 -87.0208 126° Southeast 481 554 31,000  Level Chicago Center
Wed 05:32:17 PM 43.7500 -86.8689 124° Southeast 480 552 31,000  Level Chicago Center
Wed 05:32:39 PM 43.7211 -86.8061 122° Southeast 479 551 31,000  Level Minneapolis Center
Wed 05:33:41 PM 43.6494 -86.6500 122° Southeast 481 554 31,000  Level Minneapolis Center
Wed 05:34:21 PM 43.5906 -86.5258 123° Southeast 484 557 31,000  Level Chicago Center
Wed 05:35:23 PM 43.5161 -86.3711 124° Southeast 483 556 31,000  Level Chicago Center
Wed 05:36:25 PM 43.4414 -86.2161 124° Southeast 486 559 31,000  Level Chicago Center
Wed 05:37:27 PM 43.3661 -86.0614 124° Southeast 484 557 31,000  Level Chicago Center
Wed 05:38:29 PM 43.2908 -85.9042 123° Southeast 486 559 31,000  Level Chicago Center
Wed 05:39:31 PM 43.2128 -85.7469 124° Southeast 490 564 31,000  Level Chicago Center
Wed 05:40:33 PM 43.1203 -85.5597 124° Southeast 489 563 31,000  Level Chicago Center
Wed 05:41:35 PM 43.0447 -85.4067 124° Southeast 485 558 31,000  Level Chicago Center
Wed 05:42:37 PM 42.9697 -85.2550 124° Southeast 482 555 31,000  Level Chicago Center
Wed 05:43:39 PM 42.8942 -85.1008 124° Southeast 486 559 31,000  Level Chicago Center
Wed 05:44:41 PM 42.8183 -84.9483 124° Southeast 486 559 31,000  Level Chicago Center
Wed 05:45:43 PM 42.7411 -84.7944 124° Southeast 491 565 31,000  Level Chicago Center
Wed 05:46:45 PM 42.6647 -84.6408 124° Southeast 490 564 31,000  Level Chicago Center
Wed 05:47:47 PM 42.5722 -84.4578 124° Southeast 492 566 31,000  Level Chicago Center
Wed 05:48:49 PM 42.4944 -84.3053 125° Southeast 492 566 31,000  Level Chicago Center
Wed 05:49:51 PM 42.4161 -84.1522 125° Southeast 494 568 31,000  Level Chicago Center
Wed 05:50:56 PM 42.3181 -83.9839 128° Southeast 493 567 31,000  Level Cleveland Center
Wed 05:51:56 PM 42.2392 -83.8311 125° Southeast 493 567 31,000  Level Cleveland Center
Wed 05:52:56 PM 42.1658 -83.6983 127° Southeast 493 567 31,000  Level Cleveland Center
Wed 05:53:56 PM 42.0806 -83.5292 124° Southeast 498 573 31,000  Level Cleveland Center
Wed 05:54:56 PM 42.0008 -83.3803 126° Southeast 493 567 31,000  Level Cleveland Center
Wed 05:55:56 PM 41.9231 -83.2289 125° Southeast 493 567 31,000  Level Cleveland Center
Wed 05:56:56 PM 41.8514 -83.0864 124° Southeast 504 580 31,000  Level Cleveland Center
Wed 05:57:56 PM 41.7711 -82.9358 126° Southeast 504 580 31,000  Level Cleveland Center
Wed 05:58:56 PM 41.6908 -82.7856 126° Southeast 504 580 31,000  Level Cleveland Center
Wed 05:59:56 PM 41.6061 -82.6214 125° Southeast 504 580 31,000  Level Cleveland Center
Wed 06:00:56 PM 41.5336 -82.4861 126° Southeast 504 580 31,000  Level Cleveland Center
Wed 06:01:56 PM 41.4503 -82.3367 127° Southeast 498 573 31,000  Level Cleveland Center
Wed 06:02:56 PM 41.3669 -82.1906 127° Southeast 503 579 31,000  Level Cleveland Center
Wed 06:03:56 PM 41.2711 -82.0364 130° Southeast 503 579 31,000  Level Cleveland Center
Wed 06:04:56 PM 41.1747 -81.8989 133° Southeast 498 573 31,000  Level Cleveland Center
Wed 06:05:56 PM 41.0844 -81.7786 135° Southeast 503 579 31,000  Level Cleveland Center
Wed 06:06:56 PM 40.9919 -81.6394 131° Southeast 503 579 31,000  Level Cleveland Center
Wed 06:07:56 PM 40.8972 -81.5033 133° Southeast 503 579 31,000  Level Cleveland Center
Wed 06:08:56 PM 40.8044 -81.3675 132° Southeast 498 573 31,000  Level Cleveland Center
Wed 06:09:56 PM 40.7094 -81.2322 133° Southeast 503 579 31,000  Level Cleveland Center
Wed 06:10:56 PM 40.6164 -81.0972 132° Southeast 503 579 31,000  Level Cleveland Center
Wed 06:11:56 PM 40.5147 -80.9492 132° Southeast 498 573 31,000  Level Cleveland Center
Wed 06:12:56 PM 40.4192 -80.8150 133° Southeast 498 573 31,000  Level Cleveland Center
Wed 06:13:56 PM 40.3214 -80.6783 133° Southeast 504 580 31,000  Level Cleveland Center
Wed 06:14:56 PM 40.2339 -80.5558 133° Southeast 504 580 31,000  Level Cleveland Center
Wed 06:15:56 PM 40.1400 -80.4256 133° Southeast 504 580 31,000  Level Cleveland Center
Wed 06:16:56 PM 40.0439 -80.2903 133° Southeast 504 580 31,000  Level Cleveland Center
Wed 06:17:56 PM 39.9475 -80.1578 133° Southeast 504 580 31,000  Level Cleveland Center
Wed 06:18:56 PM 39.8614 -80.0150 128° Southeast 499 574 31,000  Level Cleveland Center
Wed 06:21:06 PM 39.7833 -79.6336 105° East 487 560 31,000  Level Washington Center
Wed 06:22:06 PM 39.7475 -79.4589 105° East 500 575 31,000 -1,091 Level Washington Center
Wed 06:23:07 PM 39.7092 -79.2869 106° East 500 575 28,800 -2,777 Descending Washington Center
Wed 06:24:07 PM 39.6728 -79.1097 105° East 500 575 25,400 -2,705 Descending Washington Center
Wed 06:25:09 PM 39.6325 -78.9164 105° East 505 581 23,300 -1,850 Descending Washington Center
Wed 06:26:07 PM 39.5933 -78.7450 106° East 500 575 21,700 -1,373 Descending Washington Center
Wed 06:27:07 PM 39.5558 -78.5819 107° East 490 564 20,600 -1,686 Descending Washington Center
Wed 06:28:08 PM 39.5200 -78.4189 106° East 477 549 18,300 -2,430 Descending Washington Center
Wed 06:29:08 PM 39.4842 -78.2642 107° East 471 542 15,700 -1,664 Descending Washington Center
Wed 06:30:07 PM 39.4497 -78.1097 106° East 451 519 15,000 -450 Descending Washington Center
Wed 06:31:08 PM 39.4236 -77.9583 103° East 437 503 14,800 -843 Descending Washington Center
Wed 06:32:08 PM 39.4244 -77.8081 90° East 421 484 13,300 -1,361 Descending Washington Center
Wed 06:33:07 PM 39.4286 -77.6900 87° East 421 484 12,100 -1,160 Descending Washington Center
Wed 06:34:07 PM 39.4356 -77.5342 87° East 410 472 11,000 -545 Descending Washington Center
Wed 06:35:08 PM 39.4419 -77.3919 87° East 404 465 11,000  Level Washington Center
Wed 06:36:01 PM 39.4667 -77.2500 77° East 392 451 11,000  Level Potomac TRACON
Wed 06:37:01 PM 39.4833 -77.1000 82° East 389 448 11,000 -381 Level Potomac TRACON
Wed 06:38:07 PM 39.4667 -76.9667 99° East 382 440 10,200 -900 Descending Potomac TRACON
Wed 06:39:01 PM 39.4500 -76.8500 100° East 334 384 9,200 -1,158 Descending Potomac TRACON
Wed 06:40:01 PM 39.4167 -76.7333 110° East 332 382 8,000 -750 Descending Potomac TRACON
Wed 06:41:01 PM 39.4000 -76.6167 100° East 328 377 7,700 -694 Descending Potomac TRACON
Wed 06:42:02 PM 39.3833 -76.5167 102° East 309 356 6,600 -1,370 Descending Potomac TRACON
Wed 06:43:08 PM 39.3167 -76.4500 142° Southeast 297 342 4,800 -1,857 Descending Potomac TRACON
Wed 06:44:08 PM 39.2500 -76.4833 201° Southwest 259 298 2,700 -1,474 Descending Potomac TRACON
Wed 06:45:02 PM 39.2000 -76.5000 194° South 233 268 2,000 -368 Descending Potomac TRACON
Wed 06:46:02 PM 39.1333 -76.5167 191° South 214 246 2,000  Level Potomac TRACON

Login

Don't have an account? Register now (free) for customized features, flight alerts, and more!